Time;durP1;ratioP1;P1;durP2;ratioP2;P2;SDS_P1;SDS_P2;PMS_P1;PMS_P2;Temp;Humidity;BMP_temperature;BMP_pressure;BME280_temperature;BME280_humidity;BME280_pressure;Samples;Min_cycle;Max_cycle;Signal;HPM_P1;HPM_P2
2022/12/05 00:01:17;;;;;;;63.37;59.03;;;;;;;4.42;100.00;102221.84;5012133;28;20449;-47
2022/12/05 00:03:47;;;;;;;66.50;62.20;;;;;;;4.41;100.00;102221.97;5011281;28;20474;-46
2022/12/05 00:06:15;;;;;;;62.07;57.80;;;;;;;4.40;100.00;102223.75;5012573;28;20819;-49
2022/12/05 00:08:44;;;;;;;63.93;59.93;;;;;;;4.41;100.00;102216.69;5012139;28;20960;-46
2022/12/05 00:11:13;;;;;;;59.00;55.30;;;;;;;4.39;100.00;102198.31;5012047;28;20456;-47
2022/12/05 00:13:41;;;;;;;61.07;57.07;;;;;;;4.38;100.00;102211.66;5011282;28;20465;-46
2022/12/05 00:16:10;;;;;;;58.33;54.33;;;;;;;4.41;100.00;102204.31;5011976;28;20534;-45
2022/12/05 00:18:38;;;;;;;59.20;55.30;;;;;;;4.39;100.00;102215.97;5012292;28;20441;-49
2022/12/05 00:21:13;;;;;;;59.30;55.53;;;;;;;4.39;100.00;102197.50;5011798;28;20461;-46
2022/12/05 00:23:41;;;;;;;54.97;51.37;;;;;;;4.40;100.00;102204.44;5011248;28;20535;-44
2022/12/05 00:26:09;;;;;;;58.03;54.00;;;;;;;4.39;100.00;102197.50;5012091;28;20426;-49
2022/12/05 00:28:37;;;;;;;58.37;54.17;;;;;;;4.43;100.00;102199.75;5011843;28;20437;-47
2022/12/05 00:31:07;;;;;;;55.60;51.90;;;;;;;4.44;100.00;102209.38;5011772;28;20456;-45
2022/12/05 00:33:35;;;;;;;58.17;54.40;;;;;;;4.47;100.00;102192.44;5011016;28;20467;-48
2022/12/05 00:36:04;;;;;;;56.00;52.20;;;;;;;4.44;100.00;102203.25;5012015;28;20432;-50
2022/12/05 00:38:33;;;;;;;57.93;54.10;;;;;;;4.41;100.00;102201.69;5011988;28;20779;-46
2022/12/05 00:41:03;;;;;;;56.17;52.47;;;;;;;4.45;100.00;102218.09;5011745;28;20457;-47
2022/12/05 00:43:31;;;;;;;54.90;51.23;;;;;;;4.48;100.00;102209.94;5011109;28;20471;-48
2022/12/05 00:46:01;;;;;;;56.10;52.47;;;;;;;4.43;100.00;102199.75;5011973;28;20425;-46
2022/12/05 00:48:29;;;;;;;55.27;51.63;;;;;;;4.44;100.00;102216.44;5011686;28;20535;-48
2022/12/05 00:51:01;;;;;;;52.30;48.63;;;;;;;4.43;100.00;102202.41;5011646;28;20463;-46
2022/12/05 00:53:29;;;;;;;53.03;49.60;;;;;;;4.44;100.00;102209.38;5011016;28;20565;-46
2022/12/05 00:56:01;;;;;;;53.03;49.03;;;;;;;4.47;100.00;102200.34;5011508;28;21153;-48
2022/12/05 00:58:29;;;;;;;51.73;48.43;;;;;;;4.46;100.00;102199.50;5011577;28;20441;-48
2022/12/05 01:00:57;;;;;;;50.90;47.87;;;;;;;4.47;100.00;102203.84;5011680;28;20463;-45
2022/12/05 01:03:24;;;;;;;52.70;49.50;;;;;;;4.52;100.00;102200.81;5010834;28;20515;-47
2022/12/05 01:05:52;;;;;;;52.90;49.17;;;;;;;4.51;100.00;102211.53;5012469;28;20477;-47
2022/12/05 01:08:20;;;;;;;50.43;47.03;;;;;;;4.52;100.00;102198.19;5015258;28;20437;-48
2022/12/05 01:10:53;;;;;;;49.93;46.63;;;;;;;4.51;100.00;102199.13;5015330;28;20863;-46
2022/12/05 01:13:23;;;;;;;48.60;45.50;;;;;;;4.51;100.00;102204.41;5014594;28;20467;-46
2022/12/05 01:15:51;;;;;;;44.80;41.90;;;;;;;4.53;100.00;102204.31;5015406;28;20425;-48
2022/12/05 01:18:19;;;;;;;45.07;41.97;;;;;;;4.55;100.00;102216.44;5015134;28;20436;-47
2022/12/05 01:20:47;;;;;;;47.47;44.27;;;;;;;4.55;100.00;102197.09;5014741;28;20465;-46
2022/12/05 01:23:16;;;;;;;46.57;43.47;;;;;;;4.54;100.00;102196.25;5014262;28;20542;-48
2022/12/05 01:25:46;;;;;;;45.30;42.13;;;;;;;4.55;100.00;102189.16;5015008;28;20479;-48
2022/12/05 01:28:15;;;;;;;44.93;41.90;;;;;;;4.55;100.00;102189.16;5015080;28;20458;-45
2022/12/05 01:30:46;;;;;;;45.03;41.97;;;;;;;4.55;100.00;102178.59;5014754;28;20528;-47
2022/12/05 01:33:14;;;;;;;44.23;41.00;;;;;;;4.54;100.00;102187.50;5013978;28;20486;-45
2022/12/05 01:35:42;;;;;;;43.93;40.63;;;;;;;4.52;100.00;102182.31;5015006;28;20508;-48
2022/12/05 01:38:12;;;;;;;44.23;41.23;;;;;;;4.54;100.00;102193.59;5014925;28;20430;-46
2022/12/05 01:40:40;;;;;;;43.47;40.77;;;;;;;4.53;100.00;102199.88;5014773;28;20452;-47
2022/12/05 01:43:14;;;;;;;43.97;40.63;;;;;;;4.51;100.00;102183.28;5013985;28;20561;-46
2022/12/05 01:45:45;;;;;;;45.20;41.97;;;;;;;4.49;100.00;102187.84;5014416;28;20476;-47
2022/12/05 01:48:18;;;;;;;44.33;41.57;;;;;;;4.52;100.00;102198.19;5014745;28;20958;-44
2022/12/05 01:50:47;;;;;;;42.63;39.80;;;;;;;4.52;100.00;102192.03;5014559;28;20453;-46
2022/12/05 01:53:16;;;;;;;42.10;39.40;;;;;;;4.48;100.00;102194.94;5013808;28;20467;-46
2022/12/05 01:55:44;;;;;;;44.90;42.00;;;;;;;4.47;100.00;102189.78;5014281;28;20435;-46
2022/12/05 01:58:12;;;;;;;43.07;40.27;;;;;;;4.47;100.00;102185.34;5014181;28;20440;-46
2022/12/05 02:00:40;;;;;;;43.67;40.73;;;;;;;4.48;100.00;102194.09;5014106;28;20457;-45
2022/12/05 02:03:14;;;;;;;44.20;41.17;;;;;;;4.46;100.00;102181.03;5013800;28;20469;-46
2022/12/05 02:05:42;;;;;;;45.23;42.10;;;;;;;4.45;100.00;102179.31;5014382;28;20839;-46
2022/12/05 02:08:10;;;;;;;44.57;41.67;;;;;;;4.45;100.00;102179.31;5014104;28;20433;-46
2022/12/05 02:10:41;;;;;;;44.17;41.27;;;;;;;4.48;100.00;102179.09;5014027;28;20799;-46
2022/12/05 02:13:26;;;;;;;42.37;39.60;;;;;;;4.48;100.00;102172.97;5013574;28;20484;-49
2022/12/05 02:16:01;;;;;;;41.93;39.33;;;;;;;4.43;100.00;102173.34;5013954;28;20425;-46
2022/12/05 02:18:45;;;;;;;42.50;39.73;;;;;;;4.44;100.00;102158.34;5013834;28;20472;-45
2022/12/05 02:21:46;;;;;;;44.53;41.40;;;;;;;4.44;100.00;102167.09;5013830;28;20437;-48
2022/12/05 02:24:52;;;;;;;41.40;38.60;;;;;;;4.43;100.00;102169.84;5033470;28;20794;-46
2022/12/05 02:27:39;;;;;;;43.93;40.90;;;;;;;4.41;100.00;102162.06;4999144;28;20455;-48
2022/12/05 02:30:11;;;;;;;42.57;39.67;;;;;;;4.41;100.00;102182.34;5033706;28;20850;-48
2022/12/05 02:32:52;;;;;;;42.83;40.20;;;;;;;4.41;100.00;102162.06;5033271;28;20467;-50
2022/12/05 02:35:32;;;;;;;45.37;42.30;;;;;;;4.38;100.00;102167.59;5033462;28;20504;-49
2022/12/05 02:38:11;;;;;;;43.63;40.93;;;;;;;4.36;100.00;102177.41;5033416;28;20440;-45
2022/12/05 02:40:45;;;;;;;43.13;40.47;;;;;;;4.35;100.00;102173.13;5033317;28;20991;-45
2022/12/05 02:43:17;;;;;;;45.07;42.00;;;;;;;4.37;100.00;102175.63;5032546;28;20463;-46
2022/12/05 02:45:49;;;;;;;45.37;42.37;;;;;;;4.38;100.00;102172.03;5033163;28;20475;-45
2022/12/05 02:48:18;;;;;;;44.83;41.60;;;;;;;4.36;100.00;102176.59;5033283;28;20844;-45
2022/12/05 02:50:48;;;;;;;42.90;39.97;;;;;;;4.35;100.00;102178.41;5033147;28;20464;-47
2022/12/05 02:53:17;;;;;;;44.20;41.20;;;;;;;4.35;100.00;102203.97;5032610;28;20490;-48
2022/12/05 02:55:46;;;;;;;42.10;39.20;;;;;;;4.34;100.00;102162.66;5032943;28;20433;-48
2022/12/05 02:58:19;;;;;;;43.73;40.70;;;;;;;4.34;100.00;102160.03;5024921;28;20803;-46
2022/12/05 03:00:50;;;;;;;42.20;39.37;;;;;;;4.35;100.00;102152.00;5032840;28;20820;-45
2022/12/05 03:03:21;;;;;;;44.17;41.07;;;;;;;4.33;100.00;102156.53;5032532;28;20529;-49
2022/12/05 03:05:55;;;;;;;42.83;39.83;;;;;;;4.30;100.00;102150.69;5032815;28;20479;-48
2022/12/05 03:08:27;;;;;;;41.90;39.17;;;;;;;4.31;100.00;102161.09;5032870;28;20434;-46
2022/12/05 03:10:58;;;;;;;41.53;38.87;;;;;;;4.31;100.00;102154.97;5032723;28;20813;-44
2022/12/05 03:13:29;;;;;;;41.80;38.70;;;;;;;4.33;100.00;102158.38;5031948;28;20460;-46
2022/12/05 03:16:03;;;;;;;41.87;39.07;;;;;;;4.32;100.00;102148.75;5032856;28;20424;-47
2022/12/05 03:18:37;;;;;;;45.47;42.13;;;;;;;4.31;100.00;102139.97;5032722;28;20462;-43
2022/12/05 03:21:10;;;;;;;42.40;39.30;;;;;;;4.33;100.00;102129.31;5032362;28;20464;-45
2022/12/05 03:26:16;;;;;;;47.40;44.20;;;;;;;4.36;100.00;102151.00;5049442;28;20486;-48
2022/12/05 03:28:55;;;;;;;44.43;41.50;;;;;;;4.33;100.00;102147.78;5051719;28;20428;-48
2022/12/05 03:31:34;;;;;;;43.63;40.50;;;;;;;4.27;100.00;102164.13;5052379;28;20430;-45
2022/12/05 03:34:05;;;;;;;45.77;42.67;;;;;;;4.26;100.00;102141.31;5051812;28;20447;-46
2022/12/05 03:36:39;;;;;;;45.57;42.50;;;;;;;4.24;100.00;102130.84;5052521;28;20800;-47
2022/12/05 03:39:11;;;;;;;46.10;42.80;;;;;;;4.25;100.00;102135.19;5052359;28;20426;-47
2022/12/05 03:41:46;;;;;;;46.40;43.07;;;;;;;4.22;100.00;102126.66;5051837;28;20423;-48
2022/12/05 03:44:21;;;;;;;44.17;41.40;;;;;;;4.20;100.00;102149.72;5051738;28;20447;-48
2022/12/05 03:46:54;;;;;;;46.17;42.73;;;;;;;4.23;100.00;102146.84;5052290;28;20479;-46
2022/12/05 03:49:30;;;;;;;44.80;41.80;;;;;;;4.22;100.00;102137.22;5052255;28;20431;-49
2022/12/05 03:52:07;;;;;;;46.27;42.80;;;;;;;4.19;100.00;102138.31;5051665;28;20502;-46
2022/12/05 03:54:38;;;;;;;45.80;42.50;;;;;;;4.19;100.00;102129.53;5051654;28;20809;-46
2022/12/05 03:57:13;;;;;;;44.20;41.00;;;;;;;4.18;100.00;102123.41;5051710;28;20431;-49
2022/12/05 03:59:46;;;;;;;43.83;40.53;;;;;;;4.15;100.00;102136.06;5051914;28;20432;-46
2022/12/05 04:02:20;;;;;;;47.10;43.80;;;;;;;4.14;100.00;102122.00;5051558;28;20466;-45
2022/12/05 04:04:54;;;;;;;45.53;42.07;;;;;;;4.12;100.00;102125.72;5051602;28;20455;-46
2022/12/05 04:07:23;;;;;;;45.80;42.20;;;;;;;4.13;100.00;102146.72;5051664;28;20482;-48
2022/12/05 04:09:57;;;;;;;45.47;41.97;;;;;;;4.14;100.00;102123.81;5051991;28;20431;-46
2022/12/05 04:12:30;;;;;;;45.83;42.23;;;;;;;4.13;100.00;102128.22;5051397;28;20830;-47
2022/12/05 04:15:00;;;;;;;45.00;41.50;;;;;;;4.16;100.00;102137.72;5051559;28;20459;-46
2022/12/05 04:17:36;;;;;;;50.67;46.67;;;;;;;4.17;100.00;102120.91;5051761;28;20436;-46
2022/12/05 04:22:58;;;;;;;46.30;43.20;;;;;;;4.15;100.00;102136.06;5025655;28;20467;-46
2022/12/05 04:25:33;;;;;;;45.93;42.47;;;;;;;4.16;100.00;102132.44;5051267;28;20463;-45
2022/12/05 04:28:13;;;;;;;46.67;43.13;;;;;;;4.14;100.00;102134.34;5051621;28;20500;-46
2022/12/05 04:30:53;;;;;;;46.50;43.00;;;;;;;4.14;100.00;102129.09;5051848;28;20426;-46
2022/12/05 04:33:29;;;;;;;48.43;44.53;;;;;;;4.13;100.00;102143.22;5050853;28;20546;-49
2022/12/05 04:36:02;;;;;;;49.00;45.10;;;;;;;4.13;100.00;102124.75;5051534;28;20454;-48
2022/12/05 04:38:36;;;;;;;48.90;45.00;;;;;;;4.10;100.00;102125.00;5051487;28;20431;-45
2022/12/05 04:41:07;;;;;;;48.63;45.00;;;;;;;4.09;100.00;102137.34;5054752;28;20437;-48
2022/12/05 04:43:39;;;;;;;50.43;46.43;;;;;;;4.06;100.00;102123.56;5054790;28;20477;-46
2022/12/05 04:46:11;;;;;;;50.53;46.67;;;;;;;4.04;100.00;102139.53;5055414;28;20475;-45
2022/12/05 04:48:45;;;;;;;52.00;47.93;;;;;;;4.01;100.00;102125.72;5055508;28;20443;-46
2022/12/05 04:51:17;;;;;;;47.77;44.20;;;;;;;3.98;100.00;102137.34;5054063;28;20529;-48
2022/12/05 04:53:47;;;;;;;48.03;44.33;;;;;;;3.98;100.00;102123.31;5054519;28;20465;-46
2022/12/05 04:56:20;;;;;;;48.10;44.50;;;;;;;3.99;100.00;102122.38;5054147;28;21094;-46
2022/12/05 04:58:48;;;;;;;49.00;45.10;;;;;;;4.01;100.00;102123.06;5055149;28;20431;-46
2022/12/05 05:01:22;;;;;;;48.80;44.83;;;;;;;4.00;100.00;102146.00;5055216;28;20786;-46
2022/12/05 05:03:55;;;;;;;50.27;46.47;;;;;;;3.97;100.00;102130.41;5054442;28;20521;-46
2022/12/05 05:06:23;;;;;;;52.17;48.37;;;;;;;3.96;100.00;102117.31;5055016;28;20474;-45
2022/12/05 05:08:52;;;;;;;53.90;49.80;;;;;;;3.95;100.00;102134.13;5055030;28;20545;-46
2022/12/05 05:11:22;;;;;;;56.87;52.53;;;;;;;3.92;100.00;102132.56;5054977;28;20427;-48
2022/12/05 05:13:50;;;;;;;57.47;53.30;;;;;;;3.92;100.00;102137.84;5034553;28;20813;-51
2022/12/05 05:16:20;;;;;;;57.43;53.13;;;;;;;3.89;100.00;102140.72;5034894;28;20806;-45
2022/12/05 05:18:49;;;;;;;60.27;55.63;;;;;;;3.90;100.00;102122.13;5034956;28;20498;-49
2022/12/05 05:21:21;;;;;;;58.07;53.63;;;;;;;3.86;100.00;102128.59;5035050;28;20420;-46
2022/12/05 05:23:49;;;;;;;59.67;55.47;;;;;;;3.88;100.00;102139.06;5053815;28;20463;-52
2022/12/05 05:26:18;;;;;;;59.80;55.10;;;;;;;3.89;100.00;102138.06;5054599;28;20478;-51
2022/12/05 05:28:46;;;;;;;61.50;57.00;;;;;;;3.88;100.00;102141.69;5054968;28;20431;-49
2022/12/05 05:31:14;;;;;;;61.73;56.83;;;;;;;3.85;100.00;102148.03;5054883;28;20442;-46
2022/12/05 05:33:42;;;;;;;63.80;58.70;;;;;;;3.86;100.00;102141.78;5053863;28;20467;-45
2022/12/05 05:36:12;;;;;;;64.83;59.80;;;;;;;3.87;100.00;102143.50;5054547;28;20943;-46
2022/12/05 05:38:43;;;;;;;60.70;55.80;;;;;;;3.86;100.00;102144.44;5054575;28;20439;-50
2022/12/05 05:41:13;;;;;;;58.90;54.30;;;;;;;3.88;100.00;102139.88;5054399;28;20430;-48
2022/12/05 05:43:42;;;;;;;59.07;54.80;;;;;;;3.88;100.00;102153.06;5053575;28;20976;-48
2022/12/05 05:46:10;;;;;;;56.43;52.07;;;;;;;3.89;100.00;102138.91;5054265;28;20935;-50
2022/12/05 05:48:38;;;;;;;55.37;50.67;;;;;;;3.90;100.00;102148.53;5054424;28;20439;-47
2022/12/05 05:51:08;;;;;;;52.80;48.20;;;;;;;3.90;100.00;102148.53;5053752;28;20432;-48
2022/12/05 05:53:36;;;;;;;52.03;48.00;;;;;;;3.93;100.00;102144.81;5053386;28;20471;-48
2022/12/05 05:56:07;;;;;;;51.63;47.60;;;;;;;3.95;100.00;102163.16;5054134;28;20522;-45
2022/12/05 05:58:35;;;;;;;50.57;46.70;;;;;;;3.95;100.00;102158.72;5054141;28;20432;-46
2022/12/05 06:01:04;;;;;;;52.10;48.13;;;;;;;3.95;100.00;102150.78;5054031;28;20427;-46
2022/12/05 06:03:31;;;;;;;52.20;48.13;;;;;;;3.96;100.00;102147.22;5053304;28;20463;-49
2022/12/05 06:06:01;;;;;;;54.63;50.60;;;;;;;3.99;100.00;102152.25;5053842;28;20860;-49
2022/12/05 06:08:29;;;;;;;55.63;51.17;;;;;;;3.99;100.00;102140.84;5054103;28;20481;-47
2022/12/05 06:10:56;;;;;;;58.07;53.63;;;;;;;4.00;100.00;102147.81;5053970;28;20435;-46
2022/12/05 06:13:26;;;;;;;62.30;57.90;;;;;;;3.99;100.00;102146.13;5053056;28;20477;-48
2022/12/05 06:15:53;;;;;;;68.83;64.60;;;;;;;3.96;100.00;102139.28;5053810;28;20451;-48
2022/12/05 06:18:21;;;;;;;75.67;70.40;;;;;;;3.95;100.00;102147.31;5054059;28;20438;-46
2022/12/05 06:20:53;;;;;;;91.83;86.40;;;;;;;3.94;100.00;102143.00;5053634;28;20442;-48
2022/12/05 06:23:20;;;;;;;141.67;133.93;;;;;;;3.92;100.00;102143.13;5053008;28;20470;-52
2022/12/05 06:25:48;;;;;;;154.87;147.10;;;;;;;3.90;100.00;102137.97;5053429;28;20467;-46
2022/12/05 06:28:17;;;;;;;184.03;174.90;;;;;;;3.89;100.00;102136.28;5053560;28;20805;-47
2022/12/05 06:30:46;;;;;;;199.73;188.90;;;;;;;3.88;100.00;102136.41;5053547;28;20863;-49
2022/12/05 06:33:14;;;;;;;229.27;218.03;;;;;;;3.87;100.00;102138.22;5052555;28;21014;-47
2022/12/05 06:35:42;;;;;;;249.17;237.90;;;;;;;3.84;100.00;102151.63;5053299;28;20987;-48
2022/12/05 06:38:10;;;;;;;260.63;247.43;;;;;;;3.86;100.00;102135.66;5053507;28;20439;-47
2022/12/05 06:40:40;;;;;;;259.77;247.60;;;;;;;3.85;100.00;102132.19;5053231;28;20431;-51
2022/12/05 06:43:07;;;;;;;271.83;259.17;;;;;;;3.84;100.00;102141.09;5052637;28;20466;-50
2022/12/05 06:45:37;;;;;;;341.70;326.10;;;;;;;3.82;100.00;102139.53;5052991;28;20964;-46
2022/12/05 06:48:06;;;;;;;371.37;354.63;;;;;;;3.81;100.00;102133.41;5053078;28;20992;-45
2022/12/05 06:50:34;;;;;;;396.43;377.53;;;;;;;3.82;100.00;102136.88;5053352;28;21134;-50
2022/12/05 06:53:02;;;;;;;415.93;395.97;;;;;;;3.78;100.00;102138.91;5052987;28;20459;-48
2022/12/05 06:55:29;;;;;;;417.80;397.10;;;;;;;3.80;100.00;102144.06;5052939;28;20458;-47
2022/12/05 06:57:57;;;;;;;430.43;407.67;;;;;;;3.78;100.00;102144.19;5052937;28;20431;-46
2022/12/05 07:03:12;;;;;;;457.63;431.43;;;;;;;3.77;100.00;102145.16;5052347;28;21008;-45
2022/12/05 07:05:39;;;;;;;463.83;433.80;;;;;;;3.77;100.00;102139.88;5052795;28;20452;-46
2022/12/05 07:08:07;;;;;;;457.03;427.97;;;;;;;3.78;100.00;102146.00;5052744;28;20475;-45
2022/12/05 07:10:35;;;;;;;456.50;427.13;;;;;;;3.78;100.00;102131.00;5052766;28;20438;-46
2022/12/05 07:13:02;;;;;;;455.33;426.17;;;;;;;3.77;100.00;102160.97;5052360;28;20504;-46
2022/12/05 07:15:30;;;;;;;461.23;431.53;;;;;;;3.74;100.00;102148.03;5052585;28;20452;-46
2022/12/05 07:17:58;;;;;;;469.30;438.70;;;;;;;3.77;100.00;102133.75;5052780;28;20796;-44
2022/12/05 07:20:26;;;;;;;459.03;429.70;;;;;;;3.75;100.00;102139.16;5052629;28;20434;-43
2022/12/05 07:23:14;;;;;;;470.60;441.60;;;;;;;3.76;100.00;102135.53;5051767;28;21001;-43
2022/12/05 07:25:42;;;;;;;463.03;435.50;;;;;;;3.77;100.00;102137.22;5052343;28;20470;-44
2022/12/05 07:28:09;;;;;;;454.77;428.57;;;;;;;3.77;100.00;102131.09;5052367;28;20467;-45
2022/12/05 07:30:37;;;;;;;433.87;409.07;;;;;;;3.79;100.00;102143.22;5052389;28;20431;-43
2022/12/05 07:33:05;;;;;;;453.90;428.23;;;;;;;3.79;100.00;102137.13;5051919;28;20463;-42
2022/12/05 07:35:33;;;;;;;452.00;425.90;;;;;;;3.80;100.00;102141.44;5051999;28;20451;-43
2022/12/05 07:38:01;;;;;;;454.30;427.97;;;;;;;3.80;100.00;102128.22;5052157;28;20431;-41
2022/12/05 07:40:29;;;;;;;456.87;429.67;;;;;;;3.76;100.00;102134.72;5052302;28;20438;-41
2022/12/05 07:42:56;;;;;;;434.87;408.47;;;;;;;3.78;100.00;102136.28;5051809;28;20503;-44
2022/12/05 07:45:24;;;;;;;428.00;402.47;;;;;;;3.77;100.00;102121.41;5051976;28;20455;-42
2022/12/05 07:47:51;;;;;;;418.13;393.17;;;;;;;3.75;100.00;102123.31;5052061;28;20471;-41
2022/12/05 07:50:19;;;;;;;431.73;406.47;;;;;;;3.76;100.00;102138.19;5052039;28;20438;-44
2022/12/05 07:52:49;;;;;;;422.00;396.70;;;;;;;3.74;100.00;102132.19;5051637;28;20836;-42
2022/12/05 07:55:16;;;;;;;418.63;393.73;;;;;;;3.73;100.00;102121.78;5051805;28;20450;-43
2022/12/05 07:57:44;;;;;;;418.13;394.40;;;;;;;3.73;100.00;102133.13;5052027;28;20515;-42
2022/12/05 08:00:13;;;;;;;427.50;402.50;;;;;;;3.75;100.00;102139.16;5052061;28;20465;-43
2022/12/05 08:02:41;;;;;;;425.20;402.30;;;;;;;3.75;100.00;102133.88;5051584;28;20543;-42
2022/12/05 08:05:09;;;;;;;423.93;401.27;;;;;;;3.74;100.00;102131.34;5051966;28;20844;-41
2022/12/05 08:07:36;;;;;;;427.50;404.23;;;;;;;3.73;100.00;102129.69;5051845;28;20486;-45
2022/12/05 08:10:07;;;;;;;427.27;404.23;;;;;;;3.72;100.00;102126.19;5051967;28;20576;-41
2022/12/05 08:12:36;;;;;;;452.83;428.63;;;;;;;3.73;100.00;102122.59;5051485;28;20476;-41
2022/12/05 08:15:05;;;;;;;446.20;422.30;;;;;;;3.72;100.00;102126.19;5051423;28;20455;-42
2022/12/05 08:17:33;;;;;;;433.90;410.17;;;;;;;3.71;100.00;102115.75;5051639;28;20435;-41
2022/12/05 08:20:01;;;;;;;445.30;421.60;;;;;;;3.72;100.00;102123.56;5051809;28;20534;-41
2022/12/05 08:22:29;;;;;;;438.30;414.90;;;;;;;3.71;100.00;102134.22;5051052;28;20595;-41
2022/12/05 08:24:56;;;;;;;430.37;406.73;;;;;;;3.69;100.00;102136.16;5051348;28;20463;-42
2022/12/05 08:27:25;;;;;;;428.80;405.07;;;;;;;3.68;100.00;102148.50;5051585;28;20438;-41
2022/12/05 08:29:54;;;;;;;426.47;403.33;;;;;;;3.70;100.00;102132.56;5051407;28;20435;-41
2022/12/05 08:32:22;;;;;;;422.33;399.43;;;;;;;3.70;100.00;102140.47;5051289;28;20491;-41
2022/12/05 08:34:50;;;;;;;444.47;420.87;;;;;;;3.72;100.00;102135.91;5051388;28;20467;-44
2022/12/05 08:37:17;;;;;;;422.83;399.77;;;;;;;3.71;100.00;102135.06;5051452;28;20522;-46
2022/12/05 08:39:45;;;;;;;429.77;406.97;;;;;;;3.72;100.00;102125.34;5051919;28;20792;-41
2022/12/05 08:42:13;;;;;;;436.80;414.00;;;;;;;3.72;100.00;102133.28;5050781;28;20992;-47
2022/12/05 08:44:41;;;;;;;445.80;422.37;;;;;;;3.74;100.00;102155.09;5051347;28;20454;-42
2022/12/05 08:47:09;;;;;;;444.30;421.53;;;;;;;3.76;100.00;102140.81;5051656;28;20541;-41
2022/12/05 08:49:37;;;;;;;435.13;412.13;;;;;;;3.75;100.00;102131.25;5051304;28;20478;-42
2022/12/05 08:52:05;;;;;;;424.60;403.60;;;;;;;3.78;100.00;102131.00;5050995;28;20821;-42
2022/12/05 08:54:32;;;;;;;430.30;408.97;;;;;;;3.79;100.00;102140.59;5050917;28;20455;-44
2022/12/05 08:57:00;;;;;;;428.30;407.07;;;;;;;3.78;100.00;102138.91;5051057;28;20945;-42
2022/12/05 08:59:28;;;;;;;436.17;413.97;;;;;;;3.80;100.00;102144.91;5051533;28;20458;-42
2022/12/05 09:01:57;;;;;;;422.87;400.77;;;;;;;3.82;100.00;102135.06;5050945;28;20484;-43
2022/12/05 09:04:25;;;;;;;428.73;405.83;;;;;;;3.84;100.00;102134.97;5051085;28;20455;-43
2022/12/05 09:06:52;;;;;;;422.73;400.53;;;;;;;3.83;100.00;102134.13;5051211;28;20435;-44
2022/12/05 09:09:20;;;;;;;437.10;413.07;;;;;;;3.84;100.00;102146.38;5051302;28;20475;-44
2022/12/05 09:11:49;;;;;;;439.43;416.47;;;;;;;3.83;100.00;102128.84;5050674;28;20451;-44
2022/12/05 09:14:17;;;;;;;429.53;406.20;;;;;;;3.84;100.00;102132.31;5051246;28;20458;-42
2022/12/05 09:16:46;;;;;;;434.83;410.73;;;;;;;3.85;100.00;102137.47;5051463;28;20809;-44
2022/12/05 09:19:17;;;;;;;436.67;413.27;;;;;;;3.87;100.00;102129.44;5051166;28;20434;-45
2022/12/05 09:21:45;;;;;;;422.60;401.10;;;;;;;3.87;100.00;102134.72;5050649;28;20458;-41
2022/12/05 09:24:14;;;;;;;419.63;397.93;;;;;;;3.89;100.00;102146.00;5050938;28;20459;-42
2022/12/05 09:26:42;;;;;;;421.20;399.10;;;;;;;3.88;100.00;102136.41;5074446;23;20478;-45
2022/12/05 09:29:11;;;;;;;450.60;428.40;;;;;;;3.86;100.00;102141.78;5054593;28;20470;-45
2022/12/05 09:31:45;;;;;;;442.10;419.60;;;;;;;3.85;100.00;102152.50;5054299;28;20438;-47
2022/12/05 09:34:14;;;;;;;428.27;405.37;;;;;;;3.85;100.00;102141.94;5054634;28;20430;-49
2022/12/05 09:36:43;;;;;;;447.20;424.17;;;;;;;3.84;100.00;102146.38;5054428;28;20443;-47
2022/12/05 09:39:11;;;;;;;434.30;411.10;;;;;;;3.85;100.00;102137.47;5054661;28;20434;-46
2022/12/05 09:42:12;;;;;;;417.83;395.63;;;;;;;3.83;100.00;102138.56;5053939;28;21031;-44
2022/12/05 09:44:56;;;;;;;407.00;385.13;;;;;;;3.83;100.00;102146.47;5054141;28;20871;-46
2022/12/05 09:47:32;;;;;;;407.53;385.90;;;;;;;3.85;100.00;102124.28;5054619;28;20868;-47
2022/12/05 09:50:04;;;;;;;416.33;396.17;;;;;;;3.85;100.00;102153.31;5054270;28;20474;-45
2022/12/05 09:52:38;;;;;;;385.17;367.37;;;;;;;3.86;100.00;102130.41;5053987;28;20460;-47
2022/12/05 09:55:12;;;;;;;380.27;362.63;;;;;;;3.85;100.00;102142.75;5053872;28;20443;-48
2022/12/05 09:57:45;;;;;;;355.23;340.03;;;;;;;3.85;100.00;102129.56;5053960;28;20951;-46
2022/12/05 10:00:14;;;;;;;300.53;288.20;;;;;;;3.85;100.00;102137.47;5054103;28;20423;-43
2022/12/05 10:02:53;;;;;;;255.87;245.67;;;;;;;3.81;100.00;102133.41;5053566;28;20459;-45
2022/12/05 10:05:26;;;;;;;142.40;136.53;;;;;;;3.84;100.00;102129.69;5053714;28;20817;-46
2022/12/05 10:08:05;;;;;;;80.03;76.03;;;;;;;3.83;100.00;102152.59;5053864;28;20445;-47
2022/12/05 10:10:45;;;;;;;68.80;65.13;;;;;;;3.83;100.00;102142.03;5053886;28;20473;-43
2022/12/05 10:13:22;;;;;;;58.40;55.20;;;;;;;3.84;100.00;102130.53;5053238;28;20462;-43
2022/12/05 10:15:53;;;;;;;54.90;51.77;;;;;;;3.84;100.00;102119.13;5053795;28;20458;-47
2022/12/05 10:18:32;;;;;;;53.77;50.53;;;;;;;3.86;100.00;102133.88;5053792;28;20435;-49
2022/12/05 10:21:03;;;;;;;46.93;43.87;;;;;;;3.85;100.00;102118.19;5053608;28;20956;-45
2022/12/05 10:23:38;;;;;;;46.53;43.40;;;;;;;3.85;100.00;102158.56;5053016;28;20827;-45
2022/12/05 10:26:28;;;;;;;47.33;43.73;;;;;;;3.86;100.00;102125.13;5053522;28;20465;-46
2022/12/05 10:29:02;;;;;;;43.07;40.40;;;;;;;3.85;100.00;102124.28;5053730;28;20567;-45
2022/12/05 10:31:34;;;;;;;42.43;39.83;;;;;;;3.85;100.00;102116.34;5053188;28;20427;-45
2022/12/05 10:34:10;;;;;;;40.73;37.90;;;;;;;3.83;100.00;102118.28;5053328;28;20450;-49
2022/12/05 10:36:38;;;;;;;40.10;37.20;;;;;;;3.84;100.00;102119.13;5053366;28;20447;-45
2022/12/05 10:39:07;;;;;;;40.10;37.40;;;;;;;3.85;100.00;102126.09;5052935;28;20829;-48
2022/12/05 10:41:38;;;;;;;37.57;34.67;;;;;;;3.83;100.00;102107.72;5052851;28;20427;-45
2022/12/05 10:44:06;;;;;;;37.70;35.00;;;;;;;3.85;100.00;102097.06;5053064;28;20525;-49
2022/12/05 10:46:33;;;;;;;38.27;35.23;;;;;;;3.84;100.00;102109.41;5053293;28;20990;-44
2022/12/05 10:49:01;;;;;;;34.90;32.40;;;;;;;3.84;100.00;102098.88;5053012;28;20482;-48
2022/12/05 10:51:29;;;;;;;33.90;31.50;;;;;;;3.84;100.00;102098.88;5052511;28;20960;-47
2022/12/05 10:54:15;;;;;;;33.63;31.33;;;;;;;3.86;100.00;102090.81;5052881;28;20866;-45
2022/12/05 10:56:44;;;;;;;32.87;30.30;;;;;;;3.85;100.00;102084.69;5052859;28;20530;-47
2022/12/05 10:59:15;;;;;;;32.40;30.17;;;;;;;3.86;100.00;102096.94;5052955;28;20423;-47
2022/12/05 11:01:47;;;;;;;32.63;30.03;;;;;;;3.87;100.00;102082.78;5052453;28;20431;-45
2022/12/05 11:04:25;;;;;;;29.63;27.73;;;;;;;3.90;100.00;102093.09;5052910;28;20435;-45
2022/12/05 11:06:57;;;;;;;30.33;28.40;;;;;;;3.90;100.00;102087.84;5053255;28;20454;-47
2022/12/05 11:09:28;;;;;;;30.03;28.00;;;;;;;3.90;100.00;102100.19;5052876;28;20980;-44
2022/12/05 11:12:04;;;;;;;28.90;27.00;;;;;;;3.89;100.00;102085.28;5052229;28;20459;-45
2022/12/05 11:14:33;;;;;;;30.30;28.23;;;;;;;3.89;100.00;102080.84;5052360;28;20430;-47
2022/12/05 11:17:02;;;;;;;32.07;29.20;;;;;;;3.89;100.00;102101.13;5052741;28;20454;-46
2022/12/05 11:19:32;;;;;;;30.87;28.67;;;;;;;3.94;100.00;102066.47;5052511;28;20439;-48
2022/12/05 11:22:00;;;;;;;28.37;26.70;;;;;;;3.91;100.00;102076.28;5051997;28;20538;-46
2022/12/05 11:24:31;;;;;;;31.50;29.13;;;;;;;3.91;100.00;102073.66;5052766;28;20431;-50
2022/12/05 11:27:01;;;;;;;29.30;27.40;;;;;;;3.94;100.00;102069.97;5052477;28;20475;-47
2022/12/05 11:29:30;;;;;;;31.10;28.90;;;;;;;3.94;100.00;102063.84;5052567;28;20475;-48